Hovedside
METAR-TAF:

METAR-TAF

Lufthavner :

Harstad/Narvik lufthavn. Evenes

Evenes, Norge

breddegrad: 68-31N, lengdegrad: 016-41E, høyde over havet: 26 m

Gjeldene værobservasjon

Denne rapporten ble laget for 43 minutter siden, klokken 09:20 UTC
Vind 5 kt fra Nord-nordøst
Temperatur -2°C
Luftfuktighet 80%
Trykk 1005 hPa
Sikt 10 km eller mer
Få skyer i en høyde av 3000 ft
Brutte skyer i en høyde av 8000 ft

METAR: ENEV 100920Z 03005KT 9999 FEW030 BKN080 M02/M05 Q1005 RMK WIND 1400FT 02014KT

Tid: 11:03 (10:03 UTC)

Varsel

Denne rapporten ble laget for 2 timer og 3 minutter siden, klokken 08:00 UTC
Varsel gyldig fra 10. klokken 09 UTC til 10. klokken 18 UTC
Vind 8 kt fra Nord
Sikt 10 km eller mer
Få skyer i en høyde av 3000 ft
Spredte skyer i en høyde av 6000 ft

TAF: ENEV 100800Z 1009/1018 36008KT 9999 FEW030 SCT060

Værobservasjoner og værvarsel for over 4000 flyplasser (METAR- og TAF-rapporter).

Tilgjengelige stasjoner er representert av de røde og gule prikkene på kartet.

Hold musepekeren over prikken for å se navnet på stasjonen.

Klikk så for å se værobservasjoner og -varsler.

For å forandre kartet kan du klikke på den grønne knappen med svart kryss for å zoome inn, på den grønne knappen med strek for å zoome ut, eller på de grønne pilene for å se tilstøtende kart.


METAR-TAF: